createdAt,value
2018-12-11T00:01:55.518Z,95.60
2018-12-11T00:04:28.736Z,95.60
2018-12-11T00:06:59.781Z,95.40
2018-12-11T00:09:31.187Z,95.30
2018-12-11T00:12:03.312Z,95.50
2018-12-11T00:14:34.427Z,95.30
2018-12-11T00:17:05.524Z,95.30
2018-12-11T00:19:36.767Z,95.00
2018-12-11T00:22:07.977Z,94.80
2018-12-11T00:24:39.232Z,94.80
2018-12-11T00:27:10.348Z,94.60
2018-12-11T00:29:41.461Z,94.80
2018-12-11T00:32:12.611Z,94.60
2018-12-11T00:34:43.691Z,94.50
2018-12-11T00:37:14.706Z,94.60
2018-12-11T00:39:45.757Z,94.30
2018-12-11T00:42:16.741Z,94.20
2018-12-11T00:44:48.222Z,94.10
2018-12-11T00:47:19.293Z,94.20
2018-12-11T00:49:50.547Z,94.20
2018-12-11T00:52:21.677Z,94.20
2018-12-11T00:54:52.962Z,94.20
2018-12-11T00:57:23.956Z,94.40
2018-12-11T00:59:55.101Z,94.30
2018-12-11T01:02:26.098Z,94.40
2018-12-11T01:04:57.142Z,94.70
2018-12-11T01:07:28.157Z,94.70
2018-12-11T01:10:00.248Z,94.80
2018-12-11T01:12:31.254Z,94.80
2018-12-11T01:15:02.331Z,94.60
2018-12-11T01:17:34.386Z,94.80
2018-12-11T01:20:05.726Z,94.80
2018-12-11T01:22:36.686Z,94.90
2018-12-11T01:25:07.912Z,94.70
2018-12-11T01:27:38.832Z,94.80
2018-12-11T01:30:10.153Z,94.80
2018-12-11T01:32:41.141Z,94.80
2018-12-11T01:35:12.486Z,94.90
2018-12-11T01:37:43.586Z,94.70
2018-12-11T01:40:14.693Z,94.60
2018-12-11T01:42:45.674Z,94.80
2018-12-11T01:45:17.272Z,94.80
2018-12-11T01:47:48.227Z,94.80
2018-12-11T01:50:19.387Z,94.60
2018-12-11T01:52:50.282Z,94.60
2018-12-11T01:55:21.312Z,94.70
2018-12-11T01:57:52.232Z,94.50
2018-12-11T02:00:24.421Z,94.30
2018-12-11T02:02:55.364Z,94.30
2018-12-11T02:05:26.353Z,94.30
2018-12-11T02:07:57.318Z,94.30
2018-12-11T02:10:28.367Z,94.40
2018-12-11T02:12:59.586Z,94.30
2018-12-11T02:15:30.701Z,94.30
2018-12-11T02:18:01.650Z,94.50
2018-12-11T02:20:32.896Z,94.60
2018-12-11T02:23:03.988Z,94.70
2018-12-11T02:25:34.982Z,94.60
2018-12-11T02:28:05.907Z,94.50
2018-12-11T02:30:36.909Z,94.60
2018-12-11T02:33:07.828Z,94.60
2018-12-11T02:35:38.778Z,94.70
2018-12-11T02:38:09.754Z,94.90
2018-12-11T02:40:40.655Z,94.80
2018-12-11T02:43:11.758Z,94.80
2018-12-11T02:45:43.174Z,95.00
2018-12-11T02:48:14.125Z,94.60
2018-12-11T02:50:45.314Z,94.70
2018-12-11T02:53:16.322Z,94.80
2018-12-11T02:55:48.361Z,94.70
2018-12-11T02:58:19.499Z,94.70
2018-12-11T03:00:50.548Z,94.80
2018-12-11T03:03:21.739Z,94.80
2018-12-11T03:05:52.777Z,94.90
2018-12-11T03:08:23.973Z,94.70
2018-12-11T03:10:54.857Z,94.70
2018-12-11T03:13:25.823Z,95.10
2018-12-11T03:15:56.825Z,94.80
2018-12-11T03:18:27.783Z,94.50
2018-12-11T03:20:59.004Z,94.80
2018-12-11T03:23:30.046Z,94.80
2018-12-11T03:26:01.104Z,94.80
2018-12-11T03:28:32.169Z,94.90
2018-12-11T03:31:03.175Z,95.10
2018-12-11T03:33:34.348Z,95.00
2018-12-11T03:36:05.368Z,95.50
2018-12-11T03:38:36.305Z,95.30
2018-12-11T03:41:07.273Z,95.30
2018-12-11T03:43:38.464Z,95.40
2018-12-11T03:46:10.163Z,95.30
2018-12-11T03:48:41.143Z,95.30
2018-12-11T03:51:12.308Z,95.00
2018-12-11T03:53:43.929Z,94.80
2018-12-11T03:56:15.018Z,94.70
2018-12-11T03:58:45.922Z,94.40
2018-12-11T04:01:16.931Z,94.50
2018-12-11T04:03:47.853Z,94.30
2018-12-11T04:06:19.348Z,94.50
2018-12-11T04:08:50.535Z,94.30
2018-12-11T04:11:21.638Z,94.20
2018-12-11T04:13:52.984Z,94.20
2018-12-11T04:16:24.043Z,94.30
2018-12-11T04:18:55.219Z,94.40
2018-12-11T04:21:26.523Z,94.70
2018-12-11T04:23:57.605Z,94.90
2018-12-11T04:26:30.798Z,95.10
2018-12-11T04:29:01.715Z,95.10
2018-12-11T04:31:32.834Z,95.00
2018-12-11T04:34:03.911Z,95.10
2018-12-11T04:36:37.031Z,94.70
2018-12-11T04:39:10.373Z,94.80
2018-12-11T04:41:41.439Z,94.70
2018-12-11T04:44:12.384Z,94.80
2018-12-11T04:46:44.579Z,95.10
2018-12-11T04:49:15.908Z,95.20
2018-12-11T04:51:47.153Z,95.00
2018-12-11T04:54:18.124Z,95.40
2018-12-11T04:56:49.293Z,95.20
2018-12-11T04:59:20.378Z,95.40
2018-12-11T05:01:51.448Z,95.40
2018-12-11T05:04:22.462Z,95.30
2018-12-11T05:06:53.482Z,95.60
2018-12-11T05:09:24.518Z,95.20
2018-12-11T05:11:55.524Z,95.20
2018-12-11T05:14:26.473Z,95.20
2018-12-11T05:16:57.498Z,95.00
2018-12-11T05:19:28.356Z,95.00
2018-12-11T05:21:59.473Z,95.00
2018-12-11T05:24:31.258Z,94.90
2018-12-11T05:27:02.238Z,95.10
2018-12-11T05:29:33.168Z,95.00
2018-12-11T05:32:04.253Z,95.10
2018-12-11T05:34:35.259Z,95.00
2018-12-11T05:37:06.562Z,94.80
2018-12-11T05:39:37.915Z,94.70
2018-12-11T05:42:09.548Z,94.70
2018-12-11T05:44:40.484Z,94.60
2018-12-11T05:47:12.068Z,94.60
2018-12-11T05:49:42.978Z,94.70
2018-12-11T05:52:14.108Z,94.80
2018-12-11T05:54:45.008Z,94.90
2018-12-11T05:57:16.440Z,94.80
2018-12-11T05:59:47.283Z,94.70
2018-12-11T06:02:18.223Z,94.70
2018-12-11T06:04:49.188Z,94.80
2018-12-11T06:07:20.228Z,94.90
2018-12-11T06:09:51.156Z,94.90
2018-12-11T06:12:22.423Z,94.90
2018-12-11T06:14:53.377Z,94.90
2018-12-11T06:17:24.448Z,94.90
2018-12-11T06:19:55.563Z,95.00
2018-12-11T06:22:26.843Z,95.00
2018-12-11T06:24:57.842Z,94.80
2018-12-11T06:27:28.977Z,94.80
2018-12-11T06:30:00.008Z,95.00
2018-12-11T06:32:31.167Z,95.00
2018-12-11T06:35:02.187Z,94.80
2018-12-11T06:37:34.202Z,94.80
2018-12-11T06:40:05.752Z,94.60
2018-12-11T06:42:36.827Z,94.70
2018-12-11T06:45:08.382Z,94.60
2018-12-11T06:47:39.982Z,94.30
2018-12-11T06:50:10.992Z,94.40
2018-12-11T06:52:42.328Z,94.40
2018-12-11T06:55:13.491Z,94.40
2018-12-11T06:57:44.672Z,94.30
2018-12-11T07:00:15.803Z,94.10
2018-12-11T07:02:46.847Z,94.20
2018-12-11T07:05:19.121Z,94.30
2018-12-11T07:07:50.687Z,94.10
2018-12-11T07:10:22.786Z,93.70
2018-12-11T07:12:54.027Z,94.20
2018-12-11T07:15:25.362Z,93.80
2018-12-11T07:17:56.532Z,93.70
2018-12-11T07:20:27.782Z,93.60
2018-12-11T07:22:59.207Z,93.50
2018-12-11T07:25:30.356Z,93.70
2018-12-11T07:28:01.566Z,93.90
2018-12-11T07:30:32.850Z,93.60
2018-12-11T07:33:04.096Z,93.30
2018-12-11T07:35:35.336Z,93.40
2018-12-11T07:38:06.575Z,93.70
2018-12-11T07:40:38.691Z,92.80
2018-12-11T07:43:09.789Z,92.80
2018-12-11T07:45:41.265Z,93.30
2018-12-11T07:48:13.190Z,92.90
2018-12-11T07:50:44.420Z,92.80
2018-12-11T07:53:15.851Z,92.70
2018-12-11T07:55:47.287Z,93.00
2018-12-11T07:58:18.520Z,92.80
2018-12-11T08:00:49.966Z,92.10
2018-12-11T08:03:21.565Z,92.60
2018-12-11T08:05:52.647Z,92.20
2018-12-11T08:08:24.012Z,92.00
2018-12-11T08:10:55.560Z,92.50
2018-12-11T08:13:26.780Z,91.90
2018-12-11T08:15:58.022Z,91.90
2018-12-11T08:18:29.475Z,91.50
2018-12-11T08:21:00.580Z,91.80
2018-12-11T08:23:32.185Z,92.30
2018-12-11T08:26:03.571Z,91.40
2018-12-11T08:28:38.019Z,91.40
2018-12-11T08:31:09.206Z,91.10
2018-12-11T08:33:40.400Z,91.50
2018-12-11T08:36:11.955Z,91.50
2018-12-11T08:38:43.815Z,91.60
2018-12-11T08:41:15.535Z,91.50
2018-12-11T08:43:46.985Z,90.90
2018-12-11T08:46:18.205Z,90.70
2018-12-11T08:48:50.706Z,90.50
2018-12-11T08:51:22.365Z,90.30
2018-12-11T08:53:54.336Z,91.10
2018-12-11T08:56:25.665Z,90.90
2018-12-11T08:58:57.505Z,90.90
2018-12-11T09:01:28.690Z,90.90
2018-12-11T09:04:00.320Z,90.20
2018-12-11T09:06:32.116Z,90.70
2018-12-11T09:09:04.331Z,90.00
2018-12-11T09:11:37.852Z,91.20
2018-12-11T09:14:09.476Z,90.00
2018-12-11T09:16:41.311Z,90.30
2018-12-11T09:19:12.766Z,90.80
2018-12-11T09:21:44.016Z,90.40
2018-12-11T09:24:15.852Z,90.10
2018-12-11T09:26:47.096Z,90.30
2018-12-11T09:29:18.311Z,90.30
2018-12-11T09:31:49.682Z,89.80
2018-12-11T09:34:21.097Z,91.00
2018-12-11T09:36:52.401Z,90.60
2018-12-11T09:39:24.007Z,90.10
2018-12-11T09:41:55.341Z,89.50
2018-12-11T09:44:26.857Z,90.20
2018-12-11T09:46:58.061Z,89.30
2018-12-11T09:49:30.081Z,90.00
2018-12-11T09:52:01.206Z,88.60
2018-12-11T09:54:32.966Z,90.20
2018-12-11T09:57:04.247Z,90.00
2018-12-11T09:59:35.605Z,90.10
2018-12-11T10:02:07.771Z,89.70
2018-12-11T10:04:39.206Z,87.30
2018-12-11T10:07:11.096Z,88.90
2018-12-11T10:09:42.381Z,89.20
2018-12-11T10:12:14.137Z,88.70
2018-12-11T10:14:45.591Z,89.40
2018-12-11T10:17:16.764Z,88.00
2018-12-11T10:19:48.070Z,88.70
2018-12-11T10:22:19.372Z,88.00
2018-12-11T10:24:51.561Z,87.80
2018-12-11T10:27:23.311Z,88.70
2018-12-11T10:29:54.586Z,89.40
2018-12-11T10:32:26.891Z,87.60
2018-12-11T10:34:58.230Z,88.50
2018-12-11T10:37:29.385Z,89.80
2018-12-11T10:40:00.896Z,89.90
2018-12-11T10:42:32.622Z,88.30
2018-12-11T10:45:03.941Z,90.50
2018-12-11T10:47:35.240Z,87.90
2018-12-11T10:50:08.126Z,89.40
2018-12-11T10:52:39.215Z,88.20
2018-12-11T10:55:11.136Z,87.90
2018-12-11T10:57:42.961Z,86.40
2018-12-11T11:00:19.561Z,85.80
2018-12-11T11:03:07.533Z,88.40
2018-12-11T11:05:39.010Z,87.40
2018-12-11T11:08:10.751Z,85.40
2018-12-11T11:10:42.306Z,86.80
2018-12-11T11:13:14.672Z,88.20
2018-12-11T11:15:46.271Z,84.70
2018-12-11T11:18:17.956Z,86.60
2018-12-11T11:20:50.222Z,83.80
2018-12-11T11:23:21.611Z,84.30
2018-12-11T11:25:53.446Z,86.80
2018-12-11T11:28:25.446Z,85.30
2018-12-11T11:30:57.006Z,86.30
2018-12-11T11:33:28.497Z,85.70
2018-12-11T11:36:01.016Z,89.00
2018-12-11T11:38:32.221Z,85.90
2018-12-11T11:41:03.848Z,85.80
2018-12-11T11:43:35.027Z,84.90
2018-12-11T11:46:06.706Z,83.40
2018-12-11T11:48:37.951Z,83.90
2018-12-11T11:51:09.616Z,83.80
2018-12-11T11:53:40.616Z,84.80
2018-12-11T11:56:12.497Z,84.30
2018-12-11T11:58:44.497Z,82.60
2018-12-11T12:01:15.957Z,83.00
2018-12-11T12:03:47.701Z,84.10
2018-12-11T12:06:19.158Z,82.20
2018-12-11T12:08:50.381Z,82.60
2018-12-11T12:11:21.812Z,84.40
2018-12-11T12:13:53.154Z,83.80
2018-12-11T12:16:24.741Z,82.90
2018-12-11T12:18:57.244Z,82.80
2018-12-11T12:21:29.411Z,83.40
2018-12-11T12:24:00.517Z,81.70
2018-12-11T12:26:31.844Z,82.50
2018-12-11T12:29:03.152Z,81.90
2018-12-11T12:31:34.547Z,82.90
2018-12-11T12:34:05.912Z,82.80
2018-12-11T12:36:37.191Z,83.10
2018-12-11T12:39:09.877Z,82.80
2018-12-11T12:41:41.292Z,83.10
2018-12-11T12:44:12.753Z,82.50
2018-12-11T12:46:44.507Z,82.60
2018-12-11T12:49:15.862Z,83.70
2018-12-11T12:51:47.522Z,81.80
2018-12-11T12:54:18.957Z,83.00
2018-12-11T12:56:50.572Z,83.90
2018-12-11T12:59:21.772Z,83.00
2018-12-11T13:01:53.407Z,83.00
2018-12-11T13:04:26.231Z,82.40
2018-12-11T13:06:58.763Z,83.60
2018-12-11T13:09:30.607Z,83.70
2018-12-11T13:12:02.088Z,84.00
2018-12-11T13:14:34.038Z,84.20
2018-12-11T13:17:05.869Z,82.60
2018-12-11T13:19:37.536Z,83.70
2018-12-11T13:22:09.096Z,83.20
2018-12-11T13:24:41.079Z,82.50
2018-12-11T13:27:12.786Z,84.00
2018-12-11T13:29:44.368Z,82.80
2018-12-11T13:32:15.681Z,82.60
2018-12-11T13:34:47.546Z,83.60
2018-12-11T13:37:19.266Z,82.90
2018-12-11T13:39:50.831Z,83.00
2018-12-11T13:42:22.115Z,83.80
2018-12-11T13:44:53.531Z,84.20
2018-12-11T13:47:25.756Z,83.60
2018-12-11T13:49:57.051Z,83.50
2018-12-11T13:52:28.561Z,85.00
2018-12-11T13:55:00.470Z,84.10
2018-12-11T13:57:32.016Z,85.10
2018-12-11T14:00:03.796Z,86.50
2018-12-11T14:02:35.365Z,86.60
2018-12-11T14:05:07.063Z,85.10
2018-12-11T14:07:39.047Z,86.40
2018-12-11T14:10:10.539Z,86.30
2018-12-11T14:12:42.096Z,85.40
2018-12-11T14:15:14.401Z,86.00
2018-12-11T14:17:45.877Z,86.80
2018-12-11T14:20:17.131Z,86.50
2018-12-11T14:22:48.646Z,86.70
2018-12-11T14:25:19.864Z,86.30
2018-12-11T14:27:52.001Z,85.80
2018-12-11T14:30:23.678Z,86.60
2018-12-11T14:32:55.231Z,86.90
2018-12-11T14:35:28.951Z,87.30
2018-12-11T14:38:00.431Z,88.10
2018-12-11T14:40:32.086Z,87.40
2018-12-11T14:43:03.961Z,87.00
2018-12-11T14:45:35.371Z,86.90
2018-12-11T14:48:07.006Z,87.10
2018-12-11T14:50:39.092Z,86.70
2018-12-11T14:53:11.341Z,85.80
2018-12-11T14:55:43.288Z,87.10
2018-12-11T14:58:15.926Z,87.10
2018-12-11T15:00:47.042Z,87.00
2018-12-11T15:03:19.430Z,86.80
2018-12-11T15:05:50.832Z,87.10
2018-12-11T15:08:22.085Z,88.00
2018-12-11T15:10:53.841Z,88.60
2018-12-11T15:13:25.523Z,88.90
2018-12-11T15:15:56.826Z,89.70
2018-12-11T15:18:28.586Z,89.70
2018-12-11T15:20:59.764Z,89.50
2018-12-11T15:23:31.176Z,89.90
2018-12-11T15:26:02.451Z,89.80
2018-12-11T15:28:33.866Z,90.10
2018-12-11T15:31:13.453Z,90.70
2018-12-11T15:33:45.134Z,90.40
2018-12-11T15:36:16.685Z,90.30
2018-12-11T15:38:48.015Z,90.30
2018-12-11T15:41:19.525Z,90.40
2018-12-11T15:43:51.313Z,90.60
2018-12-11T15:46:23.620Z,90.50
2018-12-11T15:48:54.996Z,90.50
2018-12-11T15:51:26.321Z,91.00
2018-12-11T15:53:58.429Z,91.00
2018-12-11T15:56:29.721Z,90.80
2018-12-11T15:59:01.262Z,90.90
2018-12-11T16:01:33.186Z,91.10
2018-12-11T16:04:04.908Z,91.10
2018-12-11T16:06:37.400Z,91.20
2018-12-11T16:09:12.301Z,91.20
2018-12-11T16:11:43.806Z,91.00
2018-12-11T16:14:15.486Z,90.90
2018-12-11T16:16:47.051Z,91.30
2018-12-11T16:19:18.491Z,91.60
2018-12-11T16:21:49.616Z,91.30
2018-12-11T16:24:21.541Z,91.20
2018-12-11T16:26:53.581Z,91.20
2018-12-11T16:29:25.502Z,91.40
2018-12-11T16:31:56.856Z,91.50
2018-12-11T16:34:27.992Z,91.50
2018-12-11T16:36:59.536Z,91.60
2018-12-11T16:39:30.756Z,91.50
2018-12-11T16:42:02.266Z,91.50
2018-12-11T16:44:34.092Z,91.70
2018-12-11T16:47:05.726Z,91.70
2018-12-11T16:49:37.681Z,91.90
2018-12-11T16:52:09.126Z,92.20
2018-12-11T16:54:40.610Z,92.00
2018-12-11T16:57:11.887Z,91.70
2018-12-11T16:59:43.432Z,91.70
2018-12-11T17:02:14.549Z,91.80
2018-12-11T17:04:45.732Z,92.00
2018-12-11T17:07:17.602Z,92.10
2018-12-11T17:09:48.963Z,92.40
2018-12-11T17:12:21.807Z,92.80
2018-12-11T17:14:53.503Z,92.50
2018-12-11T17:17:24.997Z,92.30
2018-12-11T17:19:56.092Z,92.60
2018-12-11T17:22:27.317Z,92.70
2018-12-11T17:24:58.633Z,93.10
2018-12-11T17:27:30.349Z,93.10
2018-12-11T17:30:02.427Z,93.20
2018-12-11T17:32:34.207Z,93.50
2018-12-11T17:35:06.607Z,93.60
2018-12-11T17:37:38.262Z,93.70
2018-12-11T17:40:09.653Z,93.80
2018-12-11T17:42:41.507Z,93.90
2018-12-11T17:45:12.889Z,93.90
2018-12-11T17:47:43.983Z,93.90
2018-12-11T17:50:15.395Z,94.00
2018-12-11T17:52:46.505Z,94.10
2018-12-11T17:55:18.178Z,94.10
2018-12-11T17:57:49.503Z,94.20
2018-12-11T18:00:20.953Z,94.20
2018-12-11T18:02:52.704Z,94.10
2018-12-11T18:05:24.763Z,93.90
2018-12-11T18:07:55.893Z,94.00
2018-12-11T18:10:27.118Z,94.00
2018-12-11T18:12:58.863Z,94.20
2018-12-11T18:15:30.034Z,93.70
2018-12-11T18:18:01.123Z,93.70
2018-12-11T18:20:32.483Z,93.70
2018-12-11T18:23:03.583Z,93.90
2018-12-11T18:25:34.813Z,93.80
2018-12-11T18:28:06.123Z,93.80
2018-12-11T18:30:39.709Z,93.90
2018-12-11T18:33:10.774Z,94.00
2018-12-11T18:35:41.928Z,94.00
2018-12-11T18:38:13.034Z,94.10
2018-12-11T18:40:44.368Z,94.10
2018-12-11T18:43:16.120Z,94.10
2018-12-11T18:45:47.505Z,94.10
2018-12-11T18:48:18.831Z,94.30
2018-12-11T18:50:49.944Z,94.40
2018-12-11T18:53:21.601Z,94.40
2018-12-11T18:55:53.160Z,94.30
2018-12-11T18:58:24.913Z,94.20
2018-12-11T19:00:56.532Z,94.40
2018-12-11T19:03:28.139Z,94.80
2018-12-11T19:05:59.445Z,94.50
2018-12-11T19:08:31.159Z,94.50
2018-12-11T19:11:02.378Z,94.70
2018-12-11T19:13:36.409Z,94.90
2018-12-11T19:16:07.813Z,94.90
2018-12-11T19:18:39.443Z,94.90
2018-12-11T19:21:10.618Z,95.00
2018-12-11T19:23:52.329Z,94.90
2018-12-11T19:26:23.631Z,95.00
2018-12-11T19:28:55.013Z,94.90
2018-12-11T19:31:28.482Z,95.10
2018-12-11T19:33:59.543Z,94.80
2018-12-11T19:36:30.788Z,94.90
2018-12-11T19:39:06.638Z,95.10
2018-12-11T19:41:38.298Z,94.70
2018-12-11T19:44:09.578Z,94.60
2018-12-11T19:46:41.503Z,94.70
2018-12-11T19:49:13.112Z,94.70
2018-12-11T19:51:45.121Z,94.70
2018-12-11T19:54:16.267Z,94.80
2018-12-11T19:56:47.702Z,94.70
2018-12-11T19:59:18.803Z,94.60
2018-12-11T20:01:50.402Z,94.70
2018-12-11T20:04:22.005Z,94.90
2018-12-11T20:06:53.407Z,95.00
2018-12-11T20:09:25.598Z,95.00
2018-12-11T20:11:57.402Z,94.90
2018-12-11T20:14:29.019Z,94.80
2018-12-11T20:17:00.472Z,94.70
2018-12-11T20:19:31.858Z,94.60
2018-12-11T20:22:03.416Z,94.70
2018-12-11T20:24:34.514Z,94.90
2018-12-11T20:27:06.521Z,95.00
2018-12-11T20:29:38.246Z,94.90
2018-12-11T20:32:09.691Z,94.90
2018-12-11T20:34:40.906Z,95.00
2018-12-11T20:37:12.576Z,95.00
2018-12-11T20:39:43.541Z,95.00
2018-12-11T20:42:14.804Z,95.00
2018-12-11T20:44:45.941Z,95.00
2018-12-11T20:47:17.141Z,94.90
2018-12-11T20:49:48.475Z,94.90
2018-12-11T20:52:19.676Z,95.00
2018-12-11T20:54:50.860Z,94.80
2018-12-11T20:57:22.301Z,94.80
2018-12-11T20:59:54.297Z,94.80
2018-12-11T21:02:26.486Z,94.90
2018-12-11T21:04:57.514Z,94.90
2018-12-11T21:07:28.855Z,94.90
2018-12-11T21:10:00.016Z,94.90
2018-12-11T21:12:31.384Z,95.00
2018-12-11T21:15:02.506Z,94.80
2018-12-11T21:17:33.716Z,94.80
2018-12-11T21:20:05.441Z,94.60
2018-12-11T21:22:36.691Z,94.70
2018-12-11T21:25:08.041Z,94.80
2018-12-11T21:27:39.186Z,94.80
2018-12-11T21:30:12.136Z,94.60
2018-12-11T21:32:44.062Z,94.90
2018-12-11T21:35:15.315Z,94.40
2018-12-11T21:37:47.122Z,94.40
2018-12-11T21:40:18.625Z,94.20
2018-12-11T21:42:50.099Z,94.20
2018-12-11T21:45:21.341Z,94.10
2018-12-11T21:47:52.536Z,94.10
2018-12-11T21:50:25.206Z,93.70
2018-12-11T21:52:56.357Z,93.30
2018-12-11T21:55:27.516Z,93.20
2018-12-11T21:57:58.921Z,93.20
2018-12-11T22:00:30.156Z,93.20
2018-12-11T22:03:01.321Z,93.00
2018-12-11T22:05:33.096Z,92.90
2018-12-11T22:08:04.921Z,92.80
2018-12-11T22:10:36.292Z,92.60
2018-12-11T22:13:07.427Z,92.20
2018-12-11T22:15:38.516Z,92.30
2018-12-11T22:18:10.211Z,92.30
2018-12-11T22:20:41.486Z,92.30
2018-12-11T22:23:12.691Z,92.20
2018-12-11T22:25:43.647Z,92.30
2018-12-11T22:28:14.887Z,92.10
2018-12-11T22:30:46.131Z,92.20
2018-12-11T22:33:17.872Z,92.10
2018-12-11T22:35:48.862Z,91.90
2018-12-11T22:38:20.336Z,92.00
2018-12-11T22:40:51.427Z,91.90
2018-12-11T22:43:22.668Z,92.00
2018-12-11T22:45:53.641Z,92.10
2018-12-11T22:48:25.521Z,92.00
2018-12-11T22:50:56.821Z,92.20
2018-12-11T22:53:30.274Z,92.00
2018-12-11T22:56:01.461Z,91.90
2018-12-11T22:58:32.781Z,91.60
2018-12-11T23:01:03.921Z,92.00
2018-12-11T23:03:36.490Z,92.00
2018-12-11T23:06:07.567Z,92.10
2018-12-11T23:08:45.435Z,92.30
2018-12-11T23:11:16.536Z,92.70
2018-12-11T23:13:47.711Z,92.50
2018-12-11T23:16:18.801Z,92.50
2018-12-11T23:18:50.151Z,92.70
2018-12-11T23:21:21.216Z,92.40
2018-12-11T23:23:52.564Z,92.10
2018-12-11T23:26:23.801Z,91.70
2018-12-11T23:28:55.006Z,91.80
2018-12-11T23:31:26.091Z,92.00
2018-12-11T23:33:57.631Z,92.00
2018-12-11T23:36:29.006Z,91.90
2018-12-11T23:39:00.231Z,91.90
2018-12-11T23:41:32.446Z,91.90
2018-12-11T23:44:04.801Z,91.60
2018-12-11T23:46:35.866Z,92.00
2018-12-11T23:49:07.001Z,92.00
2018-12-11T23:51:38.145Z,91.80
2018-12-11T23:54:10.231Z,91.40
2018-12-11T23:56:41.371Z,91.50
2018-12-11T23:59:12.791Z,92.00
